Airfield :
LOGIN :

Register | Disclaimer

   EN    FR    IT 

 










Legend :    VFR   Marginal VFR   IFR   Intensive IFR   Very Intensive IFR
Visi :
Ceiling :
>= 8 km
>= 3000ft
5 to 8 km
1000 to 3000 ft
1500m to 5 km
500 to 1000 ft
800 to 1500m
200 to 500 ft
< 800m
< 200 ft
Symbols :   Thunderstorms  Fog  Heavy snow  Heavy precipitations  Wind > 20 kt
SIGMETs :     Misc.  Thunderstorms  Icing  Turbulence  Mountain Waves  Volcanic Ashes







- Airport Elevation : 364 ft
- IATA code : FRA


EDDF - Frankfurt Int.

CURRENT METAR :
  • 250820Z 24011KT 9999 VCSH FEW016TCU BKN026 06/02 Q1021 NOSIG

EXPIRED METARs :
  • 250750Z 25009KT 9999 -SHRA SCT016TCU BKN028 06/01 Q1021 NOSIG
  • 250720Z 22011KT 9999 -SHRA SCT020TCU BKN035 06/00 Q1020 NOSIG
  • 250650Z 22010KT 9999 VCSH FEW016TCU BKN035 05/00 Q1020 NOSIG
  • 250620Z 22008KT 9999 VCSH FEW016TCU BKN035 04/M00 Q1020 NOSIG
  • 250550Z 21010KT 9999 VCSH FEW020TCU SCT045 04/M01 Q1020 NOSIG

TAF AMD TAF EDDF
Valid from the 25 at 07:00 until the 26 at 12:00 UTC


250751Z 2507/2612 25010KT 9999 SCT020 BKN035
BECMG 2507/2509 28015G25KT
PROB40
TEMPO 2508/2518 31020G35KT 3500 SHRAGS BKN020CB
BECMG 2518/2520 30008KT
No reported NOTAMs for that airfield.



MET'MAP, your aeronautical weather chart ! - Copyright ORBIFLY December 2007 - Disclaimer

ORBIFLY MET'MAP TEAM :

Programming & Development : Alexandra Zaïnal
Concept & Development : Baudouin d'Aumeries
Co-Development & Prog : Marc-Olivier Méhu
Technical & hardware support : Manuel Goepfert

Contact : metmap@orbifly.com




SOURCES & CREDITS :

   NOAA